createdAt,value
2023-02-19T00:01:39.897Z,6.83
2023-02-19T00:04:11.258Z,6.50
2023-02-19T00:06:39.067Z,6.90
2023-02-19T00:09:06.966Z,6.37
2023-02-19T00:11:35.929Z,6.47
2023-02-19T00:14:04.562Z,6.70
2023-02-19T00:16:33.543Z,6.60
2023-02-19T00:19:02.260Z,6.40
2023-02-19T00:21:31.685Z,6.10
2023-02-19T00:24:00.486Z,6.50
2023-02-19T00:26:28.624Z,6.37
2023-02-19T00:28:57.036Z,6.50
2023-02-19T00:31:25.813Z,6.30
2023-02-19T00:33:54.717Z,6.60
2023-02-19T00:36:23.048Z,6.23
2023-02-19T00:38:52.436Z,6.23
2023-02-19T00:41:21.367Z,6.27
2023-02-19T00:43:49.984Z,6.00
2023-02-19T00:46:18.201Z,6.47
2023-02-19T00:48:46.048Z,6.23
2023-02-19T00:51:13.824Z,6.60
2023-02-19T00:53:41.691Z,7.03
2023-02-19T00:56:11.101Z,7.17
2023-02-19T00:58:38.877Z,7.03
2023-02-19T01:01:06.813Z,7.80
2023-02-19T01:03:34.706Z,6.90
2023-02-19T01:06:02.789Z,7.70
2023-02-19T01:08:31.368Z,7.57
2023-02-19T01:10:59.098Z,7.37
2023-02-19T01:13:29.516Z,8.07
2023-02-19T01:16:03.874Z,7.60
2023-02-19T01:18:32.004Z,8.20
2023-02-19T01:20:59.774Z,8.43
2023-02-19T01:23:27.516Z,8.73
2023-02-19T01:25:55.264Z,8.20
2023-02-19T01:28:23.577Z,8.33
2023-02-19T01:30:52.812Z,8.67
2023-02-19T01:33:20.642Z,8.07
2023-02-19T01:35:48.440Z,9.13
2023-02-19T01:38:16.202Z,8.90
2023-02-19T01:40:43.965Z,8.63
2023-02-19T01:43:16.320Z,8.67
2023-02-19T01:45:44.738Z,8.63
2023-02-19T01:48:15.228Z,8.43
2023-02-19T01:50:45.434Z,8.50
2023-02-19T01:53:16.027Z,8.10
2023-02-19T01:55:45.188Z,8.07
2023-02-19T01:58:13.078Z,9.03
2023-02-19T02:00:40.836Z,8.20
2023-02-19T02:03:08.587Z,7.70
2023-02-19T02:05:45.479Z,8.60
2023-02-19T02:08:31.882Z,9.10
2023-02-19T02:10:59.856Z,9.13
2023-02-19T02:13:27.898Z,9.40
2023-02-19T02:16:01.143Z,9.40
2023-02-19T02:18:32.592Z,8.60
2023-02-19T02:21:11.438Z,7.80
2023-02-19T02:23:47.560Z,8.50
2023-02-19T02:26:25.514Z,8.57
2023-02-19T02:29:05.427Z,8.93
2023-02-19T02:31:36.813Z,9.10
2023-02-19T02:34:06.050Z,9.30
2023-02-19T02:36:35.205Z,9.17
2023-02-19T02:39:05.247Z,9.30
2023-02-19T02:41:33.916Z,9.17
2023-02-19T02:44:01.612Z,8.07
2023-02-19T02:46:33.471Z,7.70
2023-02-19T02:49:04.818Z,8.47
2023-02-19T02:51:35.269Z,7.90
2023-02-19T02:54:23.376Z,8.30
2023-02-19T02:56:52.134Z,8.13
2023-02-19T02:59:21.098Z,9.13
2023-02-19T03:02:11.586Z,6.17
2023-02-19T03:05:17.355Z,8.33
2023-02-19T03:07:46.966Z,8.33
2023-02-19T03:10:16.708Z,8.30
2023-02-19T03:13:05.338Z,8.37
2023-02-19T03:15:52.362Z,7.80
2023-02-19T03:18:46.944Z,9.40
2023-02-19T03:21:17.126Z,8.70
2023-02-19T03:24:03.665Z,8.40
2023-02-19T03:26:33.201Z,7.97
2023-02-19T03:29:19.864Z,8.23
2023-02-19T03:31:48.050Z,8.43
2023-02-19T03:34:18.555Z,8.60
2023-02-19T03:36:53.506Z,8.80
2023-02-19T03:39:23.345Z,8.53
2023-02-19T03:41:57.088Z,8.90
2023-02-19T03:44:29.613Z,8.47
2023-02-19T03:47:03.647Z,8.93
2023-02-19T03:49:33.811Z,8.40
2023-02-19T03:52:09.400Z,8.43
2023-02-19T03:54:40.394Z,9.17
2023-02-19T03:57:13.366Z,8.53
2023-02-19T03:59:44.008Z,8.47
2023-02-19T04:02:13.406Z,8.97
2023-02-19T04:04:45.296Z,9.30
2023-02-19T04:07:14.476Z,8.53
2023-02-19T04:09:43.805Z,8.37
2023-02-19T04:12:12.280Z,8.70
2023-02-19T04:14:40.840Z,9.03
2023-02-19T04:17:12.311Z,9.07
2023-02-19T04:19:41.346Z,9.47
2023-02-19T04:22:09.825Z,8.83
2023-02-19T04:24:44.433Z,8.90
2023-02-19T04:27:12.165Z,8.70
2023-02-19T04:29:39.867Z,8.63
2023-02-19T04:32:07.756Z,9.13
2023-02-19T04:34:35.535Z,8.13
2023-02-19T04:37:03.351Z,8.80
2023-02-19T04:39:31.461Z,8.60
2023-02-19T04:42:00.640Z,8.57
2023-02-19T04:44:28.591Z,8.73
2023-02-19T04:46:56.550Z,8.47
2023-02-19T04:49:24.289Z,9.00
2023-02-19T04:51:52.129Z,8.87
2023-02-19T04:54:19.914Z,8.90
2023-02-19T04:56:47.637Z,9.37
2023-02-19T04:59:16.775Z,9.30
2023-02-19T05:01:44.638Z,8.33
2023-02-19T05:04:12.537Z,8.43
2023-02-19T05:06:40.330Z,8.40
2023-02-19T05:09:08.060Z,8.70
2023-02-19T05:11:35.826Z,8.50
2023-02-19T05:14:03.597Z,8.70
2023-02-19T05:16:33.215Z,8.50
2023-02-19T05:19:01.005Z,8.20
2023-02-19T05:21:28.861Z,7.80
2023-02-19T05:23:56.679Z,8.20
2023-02-19T05:26:24.863Z,8.57
2023-02-19T05:28:53.329Z,8.83
2023-02-19T05:31:21.595Z,8.30
2023-02-19T05:33:52.980Z,8.50
2023-02-19T05:36:21.979Z,8.60
2023-02-19T05:38:53.367Z,8.10
2023-02-19T05:41:21.873Z,7.77
2023-02-19T05:43:50.236Z,7.73
2023-02-19T05:46:22.143Z,7.83
2023-02-19T05:48:52.416Z,8.03
2023-02-19T05:51:21.457Z,8.40
2023-02-19T05:53:49.241Z,7.47
2023-02-19T05:56:20.200Z,8.20
2023-02-19T05:58:48.156Z,7.80
2023-02-19T06:01:16.445Z,7.67
2023-02-19T06:03:44.197Z,8.37
2023-02-19T06:06:14.352Z,8.13
2023-02-19T06:08:42.127Z,8.50
2023-02-19T06:11:10.299Z,8.10
2023-02-19T06:13:38.388Z,8.37
2023-02-19T06:16:06.676Z,8.10
2023-02-19T06:18:34.549Z,8.63
2023-02-19T06:21:02.730Z,8.40
2023-02-19T06:23:32.148Z,8.13
2023-02-19T06:26:06.087Z,7.90
2023-02-19T06:28:33.839Z,8.37
2023-02-19T06:31:01.654Z,8.50
2023-02-19T06:33:29.887Z,8.53
2023-02-19T06:35:59.215Z,8.20
2023-02-19T06:38:26.985Z,8.67
2023-02-19T06:40:56.151Z,8.80
2023-02-19T06:43:23.888Z,8.80
2023-02-19T06:45:51.630Z,8.33
2023-02-19T06:48:19.394Z,7.87
2023-02-19T06:50:47.142Z,8.00
2023-02-19T06:53:14.863Z,8.67
2023-02-19T06:55:42.651Z,7.93
2023-02-19T06:58:11.796Z,8.37
2023-02-19T07:00:39.619Z,8.47
2023-02-19T07:03:07.384Z,8.30
2023-02-19T07:05:35.148Z,8.70
2023-02-19T07:08:02.905Z,8.77
2023-02-19T07:10:30.647Z,7.90
2023-02-19T07:12:58.444Z,8.40
2023-02-19T07:15:27.593Z,8.50
2023-02-19T07:17:55.408Z,8.67
2023-02-19T07:20:23.134Z,8.33
2023-02-19T07:22:52.621Z,7.67
2023-02-19T07:25:20.415Z,7.17
2023-02-19T07:27:48.171Z,7.70
2023-02-19T07:30:16.036Z,7.20
2023-02-19T07:32:45.739Z,7.00
2023-02-19T07:35:13.555Z,7.43
2023-02-19T07:37:41.839Z,7.00
2023-02-19T07:40:09.811Z,7.07
2023-02-19T07:42:37.589Z,6.63
2023-02-19T07:45:05.648Z,6.90
2023-02-19T07:47:33.426Z,6.40
2023-02-19T07:50:02.628Z,7.03
2023-02-19T07:52:30.365Z,6.30
2023-02-19T07:54:58.117Z,5.20
2023-02-19T07:57:25.945Z,5.70
2023-02-19T07:59:53.734Z,5.50
2023-02-19T08:02:39.452Z,6.37
2023-02-19T08:05:08.767Z,5.57
2023-02-19T08:07:37.278Z,5.73
2023-02-19T08:10:23.591Z,7.27
2023-02-19T08:13:15.457Z,6.93
2023-02-19T08:15:43.248Z,7.03
2023-02-19T08:18:11.491Z,6.53
2023-02-19T08:20:40.700Z,6.50
2023-02-19T08:23:08.637Z,6.50
2023-02-19T08:25:36.537Z,6.53
2023-02-19T08:28:04.623Z,6.47
2023-02-19T08:30:33.004Z,6.53
2023-02-19T08:33:02.415Z,6.83
2023-02-19T08:35:30.383Z,6.47
2023-02-19T08:37:59.776Z,6.50
2023-02-19T08:40:28.049Z,6.90
2023-02-19T08:42:55.820Z,6.50
2023-02-19T08:45:24.433Z,6.30
2023-02-19T08:47:52.249Z,6.50
2023-02-19T08:50:20.111Z,6.10
2023-02-19T08:52:47.844Z,6.20
2023-02-19T08:55:16.991Z,6.47
2023-02-19T08:57:44.910Z,4.87
2023-02-19T09:00:13.336Z,5.43
2023-02-19T09:02:41.096Z,4.70
2023-02-19T09:05:09.025Z,5.50
2023-02-19T09:07:36.788Z,5.60
2023-02-19T09:10:04.630Z,5.87
2023-02-19T09:12:34.334Z,5.37
2023-02-19T09:15:02.174Z,5.57
2023-02-19T09:17:29.912Z,5.60
2023-02-19T09:19:57.656Z,5.60
2023-02-19T09:22:25.443Z,5.73
2023-02-19T09:24:53.168Z,5.50
2023-02-19T09:27:21.390Z,5.40
2023-02-19T09:29:50.542Z,5.93
2023-02-19T09:32:19.309Z,5.80
2023-02-19T09:34:47.269Z,5.83
2023-02-19T09:37:15.076Z,6.03
2023-02-19T09:39:42.828Z,5.87
2023-02-19T09:42:15.976Z,6.10
2023-02-19T09:44:45.316Z,6.33
2023-02-19T09:47:17.551Z,6.03
2023-02-19T09:49:50.212Z,6.00
2023-02-19T09:52:19.850Z,6.30
2023-02-19T09:54:48.159Z,5.63
2023-02-19T09:57:16.968Z,6.00
2023-02-19T09:59:47.439Z,5.87
2023-02-19T10:02:17.694Z,6.20
2023-02-19T10:04:46.102Z,5.60
2023-02-19T10:07:14.578Z,5.60
2023-02-19T10:09:42.369Z,6.07
2023-02-19T10:12:15.608Z,7.00
2023-02-19T10:14:44.427Z,7.00
2023-02-19T10:17:16.805Z,6.90
2023-02-19T10:19:45.913Z,7.27
2023-02-19T10:22:14.410Z,7.27
2023-02-19T10:24:43.106Z,6.80
2023-02-19T10:27:12.939Z,6.97
2023-02-19T10:29:40.739Z,7.23
2023-02-19T10:32:17.307Z,7.60
2023-02-19T10:34:46.578Z,7.10
2023-02-19T10:37:15.841Z,6.40
2023-02-19T10:39:44.788Z,7.37
2023-02-19T10:42:16.475Z,7.40
2023-02-19T10:44:45.355Z,7.50
2023-02-19T10:47:17.285Z,7.73
2023-02-19T10:49:48.879Z,8.50
2023-02-19T10:52:19.114Z,8.40
2023-02-19T10:54:47.287Z,8.13
2023-02-19T10:57:29.988Z,8.83
2023-02-19T10:59:58.570Z,9.00
2023-02-19T11:02:26.913Z,8.90
2023-02-19T11:05:08.069Z,8.87
2023-02-19T11:07:37.112Z,8.87
2023-02-19T11:10:05.590Z,8.13
2023-02-19T11:12:37.267Z,8.60
2023-02-19T11:15:14.883Z,9.20
2023-02-19T11:17:45.385Z,9.13
2023-02-19T11:20:17.651Z,8.67
2023-02-19T11:22:46.974Z,8.93
2023-02-19T11:25:19.933Z,8.83
2023-02-19T11:27:54.965Z,9.27
2023-02-19T11:30:37.668Z,9.83
2023-02-19T11:33:27.335Z,10.00
2023-02-19T11:36:00.670Z,9.23
2023-02-19T11:38:28.498Z,10.10
2023-02-19T11:41:03.074Z,10.63
2023-02-19T11:43:52.022Z,10.60
2023-02-19T11:46:23.757Z,10.80
2023-02-19T11:48:58.132Z,10.27
2023-02-19T11:51:46.090Z,12.20
2023-02-19T11:54:23.657Z,12.20
2023-02-19T11:56:56.789Z,11.17
2023-02-19T11:59:28.898Z,11.53
2023-02-19T12:02:03.859Z,11.97
2023-02-19T12:04:41.307Z,11.10
2023-02-19T12:07:16.479Z,12.13
2023-02-19T12:09:52.247Z,11.53
2023-02-19T12:12:27.442Z,12.07
2023-02-19T12:15:02.045Z,11.50
2023-02-19T12:17:40.426Z,12.10
2023-02-19T12:20:15.779Z,11.63
2023-02-19T12:22:46.528Z,11.97
2023-02-19T12:25:34.992Z,11.93
2023-02-19T12:28:23.817Z,11.80
2023-02-19T12:31:03.316Z,12.67
2023-02-19T12:33:46.213Z,12.63
2023-02-19T12:36:18.201Z,12.23
2023-02-19T12:38:47.832Z,12.40
2023-02-19T12:41:21.150Z,12.63
2023-02-19T12:43:54.102Z,12.30
2023-02-19T12:46:24.786Z,12.40
2023-02-19T12:48:56.596Z,13.20
2023-02-19T12:51:26.594Z,13.10
2023-02-19T12:53:55.788Z,13.97
2023-02-19T12:56:26.229Z,13.43
2023-02-19T12:58:55.972Z,13.37
2023-02-19T13:01:27.140Z,12.80
2023-02-19T13:04:02.047Z,13.30
2023-02-19T13:06:34.671Z,12.67
2023-02-19T13:09:06.864Z,12.80
2023-02-19T13:11:37.226Z,13.13
2023-02-19T13:14:07.483Z,12.93
2023-02-19T13:16:39.666Z,13.93
2023-02-19T13:19:07.551Z,13.93
2023-02-19T13:21:54.543Z,14.40
2023-02-19T13:24:24.240Z,14.33
2023-02-19T13:26:59.989Z,14.17
2023-02-19T13:29:32.944Z,12.63
2023-02-19T13:32:11.581Z,13.23
2023-02-19T13:34:47.921Z,13.27
2023-02-19T13:37:16.124Z,13.13
2023-02-19T13:39:48.697Z,13.03
2023-02-19T13:42:24.658Z,13.17
2023-02-19T13:44:57.738Z,12.37
2023-02-19T13:47:44.980Z,13.47
2023-02-19T13:50:23.042Z,14.37
2023-02-19T13:52:51.012Z,14.27
2023-02-19T13:55:36.710Z,13.57
2023-02-19T13:58:25.104Z,12.80
2023-02-19T14:00:53.576Z,13.30
2023-02-19T14:03:28.238Z,13.83
2023-02-19T14:06:01.675Z,14.53
2023-02-19T14:08:44.325Z,14.10
2023-02-19T14:11:14.458Z,13.70
2023-02-19T14:13:59.319Z,14.03
2023-02-19T14:16:30.868Z,13.37
2023-02-19T14:18:58.647Z,14.47
2023-02-19T14:21:35.523Z,12.93
2023-02-19T14:24:03.779Z,12.97
2023-02-19T14:26:32.787Z,13.13
2023-02-19T14:29:01.593Z,13.13
2023-02-19T14:31:30.261Z,12.90
2023-02-19T14:33:59.722Z,13.20
2023-02-19T14:36:35.124Z,13.03
2023-02-19T14:39:04.100Z,12.47
2023-02-19T14:41:33.262Z,12.77
2023-02-19T14:44:02.164Z,13.20
2023-02-19T14:46:32.058Z,12.50
2023-02-19T14:49:03.911Z,12.87
2023-02-19T14:51:34.936Z,13.13
2023-02-19T14:54:06.141Z,13.87
2023-02-19T14:56:35.421Z,13.23
2023-02-19T14:59:24.151Z,13.50
2023-02-19T15:01:55.500Z,12.63
2023-02-19T15:04:24.280Z,13.30
2023-02-19T15:06:56.371Z,14.00
2023-02-19T15:09:26.450Z,13.83
2023-02-19T15:11:57.110Z,13.30
2023-02-19T15:14:28.716Z,13.73
2023-02-19T15:16:58.959Z,12.57
2023-02-19T15:19:26.975Z,12.57
2023-02-19T15:21:56.305Z,12.67
2023-02-19T15:24:24.254Z,12.80
2023-02-19T15:26:54.238Z,13.10
2023-02-19T15:29:22.825Z,12.47
2023-02-19T15:31:52.622Z,12.50
2023-02-19T15:34:21.099Z,12.93
2023-02-19T15:36:50.000Z,12.53
2023-02-19T15:39:21.330Z,12.27
2023-02-19T15:41:53.006Z,12.37
2023-02-19T15:44:28.211Z,12.00
2023-02-19T15:46:56.306Z,11.47
2023-02-19T15:49:31.077Z,11.30
2023-02-19T15:52:00.932Z,11.87
2023-02-19T15:54:32.088Z,11.77
2023-02-19T15:57:03.579Z,12.40
2023-02-19T15:59:34.115Z,11.53
2023-02-19T16:02:03.862Z,11.10
2023-02-19T16:04:31.779Z,9.97
2023-02-19T16:07:00.752Z,10.23
2023-02-19T16:09:31.938Z,9.80
2023-02-19T16:12:01.157Z,9.70
2023-02-19T16:14:32.651Z,9.60
2023-02-19T16:17:02.341Z,10.07
2023-02-19T16:19:33.106Z,9.57
2023-02-19T16:22:01.997Z,9.10
2023-02-19T16:24:32.241Z,8.33
2023-02-19T16:27:00.415Z,8.63
2023-02-19T16:29:30.081Z,9.17
2023-02-19T16:31:58.367Z,8.67
2023-02-19T16:34:31.922Z,8.60
2023-02-19T16:36:59.693Z,7.97
2023-02-19T16:39:27.673Z,7.87
2023-02-19T16:42:12.159Z,8.43
2023-02-19T16:44:39.911Z,7.53
2023-02-19T16:47:08.869Z,8.30
2023-02-19T16:49:38.180Z,8.20
2023-02-19T16:52:06.103Z,7.50
2023-02-19T16:54:33.904Z,7.73
2023-02-19T16:57:01.688Z,7.67
2023-02-19T16:59:30.821Z,7.27
2023-02-19T17:01:58.636Z,7.43
2023-02-19T17:04:26.448Z,6.30
2023-02-19T17:06:54.265Z,7.20
2023-02-19T17:09:22.014Z,7.33
2023-02-19T17:11:49.832Z,7.03
2023-02-19T17:14:17.631Z,6.20
2023-02-19T17:16:46.938Z,6.57
2023-02-19T17:19:16.208Z,7.63
2023-02-19T17:21:45.281Z,6.23
2023-02-19T17:24:13.251Z,6.27
2023-02-19T17:26:41.037Z,6.83
2023-02-19T17:29:10.310Z,6.47
2023-02-19T17:31:38.142Z,6.73
2023-02-19T17:34:07.486Z,7.47
2023-02-19T17:36:35.383Z,6.90
2023-02-19T17:39:03.930Z,6.97
2023-02-19T17:41:31.894Z,7.60
2023-02-19T17:43:59.646Z,8.20
2023-02-19T17:46:28.283Z,6.80
2023-02-19T17:48:56.405Z,7.83
2023-02-19T17:51:25.598Z,6.67
2023-02-19T17:53:53.342Z,8.03
2023-02-19T17:56:22.114Z,7.47
2023-02-19T17:58:49.883Z,6.40
2023-02-19T18:01:17.760Z,6.27
2023-02-19T18:03:45.724Z,5.90
2023-02-19T18:06:13.706Z,6.43
2023-02-19T18:08:47.060Z,6.60
2023-02-19T18:11:14.885Z,6.03
2023-02-19T18:13:42.815Z,6.47
2023-02-19T18:16:11.088Z,6.97
2023-02-19T18:18:38.918Z,6.80
2023-02-19T18:21:08.786Z,7.00
2023-02-19T18:23:36.592Z,7.10
2023-02-19T18:26:07.834Z,6.30
2023-02-19T18:28:35.832Z,6.93
2023-02-19T18:31:03.775Z,6.67
2023-02-19T18:33:31.635Z,7.33
2023-02-19T18:36:00.574Z,7.50
2023-02-19T18:38:28.412Z,7.37
2023-02-19T18:40:58.639Z,7.60
2023-02-19T18:43:27.943Z,7.30
2023-02-19T18:45:55.720Z,8.00
2023-02-19T18:48:23.857Z,8.00
2023-02-19T18:50:51.723Z,7.80
2023-02-19T18:53:19.489Z,8.03
2023-02-19T18:55:47.567Z,8.23
2023-02-19T18:58:15.523Z,7.93
2023-02-19T19:00:44.765Z,7.50
2023-02-19T19:03:12.662Z,7.57
2023-02-19T19:05:40.663Z,7.33
2023-02-19T19:08:08.593Z,7.60
2023-02-19T19:10:36.412Z,7.63
2023-02-19T19:13:04.230Z,8.00
2023-02-19T19:15:32.089Z,7.47
2023-02-19T19:18:02.784Z,7.70
2023-02-19T19:20:30.540Z,7.67
2023-02-19T19:22:58.714Z,7.43
2023-02-19T19:25:26.781Z,7.80
2023-02-19T19:27:56.306Z,8.00
2023-02-19T19:30:24.454Z,8.13
2023-02-19T19:32:53.954Z,8.07
2023-02-19T19:35:24.443Z,8.80
2023-02-19T19:37:52.307Z,8.17
2023-02-19T19:40:26.082Z,8.80
2023-02-19T19:42:54.303Z,8.77
2023-02-19T19:45:22.196Z,8.60
2023-02-19T19:47:50.224Z,9.40
2023-02-19T19:50:19.249Z,9.60
2023-02-19T19:52:48.483Z,8.73
2023-02-19T19:55:16.529Z,9.13
2023-02-19T19:57:44.956Z,8.33
2023-02-19T20:00:14.069Z,8.27
2023-02-19T20:02:41.881Z,9.10
2023-02-19T20:05:09.676Z,9.10
2023-02-19T20:07:37.438Z,8.70
2023-02-19T20:10:07.542Z,8.07
2023-02-19T20:12:35.288Z,8.53
2023-02-19T20:15:03.154Z,9.03
2023-02-19T20:17:30.942Z,8.97
2023-02-19T20:19:58.740Z,8.67
2023-02-19T20:22:26.483Z,9.10
2023-02-19T20:24:54.820Z,9.23
2023-02-19T20:27:24.615Z,9.10
2023-02-19T20:29:52.342Z,8.70
2023-02-19T20:32:20.146Z,8.37
2023-02-19T20:34:48.443Z,7.80
2023-02-19T20:37:16.520Z,9.27
2023-02-19T20:39:44.348Z,8.37
2023-02-19T20:42:16.783Z,8.00
2023-02-19T20:44:46.158Z,8.70
2023-02-19T20:47:14.471Z,9.10
2023-02-19T20:49:44.908Z,9.13
2023-02-19T20:52:15.134Z,8.83
2023-02-19T20:54:44.463Z,8.87
2023-02-19T20:57:12.989Z,8.70
2023-02-19T20:59:40.966Z,9.40
2023-02-19T21:02:15.673Z,8.17
2023-02-19T21:04:44.087Z,8.30
2023-02-19T21:07:12.496Z,9.00
2023-02-19T21:09:40.346Z,9.20
2023-02-19T21:12:08.475Z,7.83
2023-02-19T21:14:36.413Z,8.53
2023-02-19T21:17:05.052Z,8.00
2023-02-19T21:19:34.503Z,8.43
2023-02-19T21:22:02.269Z,8.37
2023-02-19T21:24:32.668Z,8.30
2023-02-19T21:27:00.486Z,8.53
2023-02-19T21:29:28.302Z,8.30
2023-02-19T21:31:57.676Z,8.07
2023-02-19T21:34:26.870Z,8.60
2023-02-19T21:36:57.278Z,8.23
2023-02-19T21:39:26.293Z,7.97
2023-02-19T21:41:54.186Z,8.07
2023-02-19T21:44:22.258Z,7.83
2023-02-19T21:46:50.157Z,7.20
2023-02-19T21:49:18.385Z,7.00
2023-02-19T21:51:48.051Z,7.03
2023-02-19T21:54:19.026Z,7.30
2023-02-19T21:56:56.037Z,7.10
2023-02-19T21:59:23.842Z,7.20
2023-02-19T22:01:51.798Z,6.90
2023-02-19T22:04:20.894Z,6.70
2023-02-19T22:06:48.676Z,6.80
2023-02-19T22:09:17.852Z,7.10
2023-02-19T22:11:45.636Z,6.60
2023-02-19T22:14:13.390Z,6.40
2023-02-19T22:16:41.234Z,6.80
2023-02-19T22:19:09.073Z,6.97
2023-02-19T22:21:36.836Z,6.60
2023-02-19T22:24:04.718Z,6.60
2023-02-19T22:26:35.329Z,6.50
2023-02-19T22:29:07.121Z,6.33
2023-02-19T22:31:35.658Z,6.40
2023-02-19T22:34:03.914Z,6.13
2023-02-19T22:36:33.158Z,7.40
2023-02-19T22:39:00.972Z,6.47
2023-02-19T22:41:28.887Z,6.17
2023-02-19T22:43:58.981Z,6.43
2023-02-19T22:46:27.709Z,6.77
2023-02-19T22:48:55.568Z,6.70
2023-02-19T22:51:23.759Z,6.03
2023-02-19T22:53:52.235Z,6.60
2023-02-19T22:56:21.033Z,6.77
2023-02-19T22:58:48.871Z,6.70
2023-02-19T23:01:18.298Z,6.33
2023-02-19T23:03:46.891Z,6.30
2023-02-19T23:06:14.935Z,6.17
2023-02-19T23:08:43.520Z,5.73
2023-02-19T23:11:11.512Z,6.23
2023-02-19T23:13:39.297Z,5.50
2023-02-19T23:16:07.157Z,6.13
2023-02-19T23:18:36.256Z,6.53
2023-02-19T23:21:04.030Z,6.90
2023-02-19T23:23:31.876Z,6.50
2023-02-19T23:25:59.580Z,6.30
2023-02-19T23:28:27.351Z,6.90
2023-02-19T23:30:55.129Z,6.53
2023-02-19T23:33:22.953Z,6.60
2023-02-19T23:35:52.137Z,6.67
2023-02-19T23:38:20.190Z,6.93
2023-02-19T23:40:47.977Z,6.50
2023-02-19T23:43:15.772Z,6.47
2023-02-19T23:45:43.587Z,6.40
2023-02-19T23:48:11.313Z,6.70
2023-02-19T23:50:39.068Z,6.60
2023-02-19T23:53:08.274Z,6.70
2023-02-19T23:55:36.049Z,6.87
2023-02-19T23:58:03.840Z,7.20
